Aviation Digital Data Service (ADDS)

Output produced by METARs form (0145 UTC 22 February 2019)
found at http://www.aviationweather.gov/metar/data/
 
METAR text: LFPV 220130Z AUTO 06002KT 4700 0900 R27/P2000 R09/P2000 BCFG NSC 04/04 Q1032 TEMPO 0800 BCFG
Conditions at: LFPV (VILLACOUBLAY/VEL, FR) observed 0130 UTC 22 February 2019
Temperature: 4.0°C (39°F)
Dewpoint: 4.0°C (39°F) [RH = 100%]
Pressure (altimeter): 30.47 inches Hg (1032.0 mb)
Winds: from the ENE (60 degrees) at 2 MPH (2 knots; 1.0 m/s)
Visibility: 2.92 miles (4.70 km)
Ceiling: at least 12,000 feet AGL
Clouds: sky clear below 12,000 feet AGL
Weather: BCFG  (patches of fog)

METAR text: LFPV 220100Z AUTO 00000KT 4700 BR NSC 05/05 Q1032 NOSIG
Conditions at: LFPV (VILLACOUBLAY/VEL, FR) observed 0100 UTC 22 February 2019
Temperature: 5.0°C (41°F)
Dewpoint: 5.0°C (41°F) [RH = 100%]
Pressure (altimeter): 30.47 inches Hg (1032.0 mb)
Winds: calm
Visibility: 2.92 miles (4.70 km)
Ceiling: at least 12,000 feet AGL
Clouds: sky clear below 12,000 feet AGL
Weather: BR  (mist)

METAR text: LFPV 220030Z AUTO 06002KT 6000 NSC 06/05 Q1032 TEMPO 3000 BR
Conditions at: LFPV (VILLACOUBLAY/VEL, FR) observed 0030 UTC 22 February 2019
Temperature: 6.0°C (43°F)
Dewpoint: 5.0°C (41°F) [RH = 93%]
Pressure (altimeter): 30.47 inches Hg (1032.0 mb)
Winds: from the ENE (60 degrees) at 2 MPH (2 knots; 1.0 m/s)
Visibility: 4 miles ( 6 km)
Ceiling: at least 12,000 feet AGL
Clouds: sky clear below 12,000 feet AGL
Weather: no significant weather observed at this time

METAR text: LFPV 220000Z AUTO 05002KT 6000 NSC 07/06 Q1032 TEMPO 3000 BR
Conditions at: LFPV (VILLACOUBLAY/VEL, FR) observed 0000 UTC 22 February 2019
Temperature: 7.0°C (45°F)
Dewpoint: 6.0°C (43°F) [RH = 93%]
Pressure (altimeter): 30.47 inches Hg (1032.0 mb)
Winds: from the NE (50 degrees) at 2 MPH (2 knots; 1.0 m/s)
Visibility: 4 miles ( 6 km)
Ceiling: at least 12,000 feet AGL
Clouds: sky clear below 12,000 feet AGL
Weather: no significant weather observed at this time

METAR text: LFPV 212330Z AUTO 04002KT 6000 NSC 06/06 Q1032 TEMPO 3000 BR
Conditions at: LFPV (VILLACOUBLAY/VEL, FR) observed 2330 UTC 21 February 2019
Temperature: 6.0°C (43°F)
Dewpoint: 6.0°C (43°F) [RH = 100%]
Pressure (altimeter): 30.47 inches Hg (1032.0 mb)
Winds: from the NE (40 degrees) at 2 MPH (2 knots; 1.0 m/s)
Visibility: 4 miles ( 6 km)
Ceiling: at least 12,000 feet AGL
Clouds: sky clear below 12,000 feet AGL
Weather: no significant weather observed at this time

METAR text: LFPV 212300Z AUTO 04001KT 6000 NSC 06/04 Q1032 TEMPO 3000 BR
Conditions at: LFPV (VILLACOUBLAY/VEL, FR) observed 2300 UTC 21 February 2019
Temperature: 6.0°C (43°F)
Dewpoint: 4.0°C (39°F) [RH = 87%]
Pressure (altimeter): 30.47 inches Hg (1032.0 mb)
Winds: from the NE (40 degrees) at 1 MPH (1 knots; 0.5 m/s)
Visibility: 4 miles ( 6 km)
Ceiling: at least 12,000 feet AGL
Clouds: sky clear below 12,000 feet AGL
Weather: no significant weather observed at this time

METAR text: LFPV 212230Z AUTO 03002KT 7000 NSC 06/06 Q1032 TEMPO 3000 BR
Conditions at: LFPV (VILLACOUBLAY/VEL, FR) observed 2230 UTC 21 February 2019
Temperature: 6.0°C (43°F)
Dewpoint: 6.0°C (43°F) [RH = 100%]
Pressure (altimeter): 30.47 inches Hg (1032.0 mb)
Winds: from the NNE (30 degrees) at 2 MPH (2 knots; 1.0 m/s)
Visibility: 4 miles ( 7 km)
Ceiling: at least 12,000 feet AGL
Clouds: sky clear below 12,000 feet AGL
Weather: no significant weather observed at this time

METAR text: LFPV 212200Z AUTO 04001KT 7000 NSC 06/05 Q1031 TEMPO 3000 BR
Conditions at: LFPV (VILLACOUBLAY/VEL, FR) observed 2200 UTC 21 February 2019
Temperature: 6.0°C (43°F)
Dewpoint: 5.0°C (41°F) [RH = 93%]
Pressure (altimeter): 30.44 inches Hg (1031.0 mb)
Winds: from the NE (40 degrees) at 1 MPH (1 knots; 0.5 m/s)
Visibility: 4 miles ( 7 km)
Ceiling: at least 12,000 feet AGL
Clouds: sky clear below 12,000 feet AGL
Weather: no significant weather observed at this time

METAR text: LFPV 212130Z AUTO 00000KT 7000 NSC 07/05 Q1031 TEMPO 3000 BR
Conditions at: LFPV (VILLACOUBLAY/VEL, FR) observed 2130 UTC 21 February 2019
Temperature: 7.0°C (45°F)
Dewpoint: 5.0°C (41°F) [RH = 87%]
Pressure (altimeter): 30.44 inches Hg (1031.0 mb)
Winds: calm
Visibility: 4 miles ( 7 km)
Ceiling: at least 12,000 feet AGL
Clouds: sky clear below 12,000 feet AGL
Weather: no significant weather observed at this time

METAR text: LFPV 212100Z AUTO 01002KT 8000 NSC 08/05 Q1031 NOSIG
Conditions at: LFPV (VILLACOUBLAY/VEL, FR) observed 2100 UTC 21 February 2019
Temperature: 8.0°C (46°F)
Dewpoint: 5.0°C (41°F) [RH = 81%]
Pressure (altimeter): 30.44 inches Hg (1031.0 mb)
Winds: from the N (10 degrees) at 2 MPH (2 knots; 1.0 m/s)
Visibility: 5 miles ( 8 km)
Ceiling: at least 12,000 feet AGL
Clouds: sky clear below 12,000 feet AGL
Weather: no significant weather observed at this time

METAR text: LFPV 212030Z AUTO VRB02KT CAVOK 08/05 Q1031 NOSIG
Conditions at: LFPV (VILLACOUBLAY/VEL, FR) observed 2030 UTC 21 February 2019
Temperature: 8.0°C (46°F)
Dewpoint: 5.0°C (41°F) [RH = 81%]
Pressure (altimeter): 30.44 inches Hg (1031.0 mb)
Winds: variable direction winds at 2 MPH (2 knots; 1.0 m/s)
Visibility: 6 or more miles (10+ km)
Ceiling: ceiling and visibility are OK
Clouds: unknown
Weather: no significant weather observed at this time

METAR text: LFPV 212000Z AUTO 36003KT CAVOK 08/04 Q1031 NOSIG
Conditions at: LFPV (VILLACOUBLAY/VEL, FR) observed 2000 UTC 21 February 2019
Temperature: 8.0°C (46°F)
Dewpoint: 4.0°C (39°F) [RH = 76%]
Pressure (altimeter): 30.44 inches Hg (1031.0 mb)
Winds: from the N (360 degrees) at 3 MPH (3 knots; 1.5 m/s)
Visibility: 6 or more miles (10+ km)
Ceiling: ceiling and visibility are OK
Clouds: unknown
Weather: no significant weather observed at this time

METAR text: LFPV 211930Z AUTO 35002KT CAVOK 08/02 Q1030 NOSIG
Conditions at: LFPV (VILLACOUBLAY/VEL, FR) observed 1930 UTC 21 February 2019
Temperature: 8.0°C (46°F)
Dewpoint: 2.0°C (36°F) [RH = 66%]
Pressure (altimeter): 30.41 inches Hg (1030.0 mb)
Winds: from the N (350 degrees) at 2 MPH (2 knots; 1.0 m/s)
Visibility: 6 or more miles (10+ km)
Ceiling: ceiling and visibility are OK
Clouds: unknown
Weather: no significant weather observed at this time

METAR text: LFPV 211900Z AUTO 31003KT CAVOK 08/02 Q1030 NOSIG
Conditions at: LFPV (VILLACOUBLAY/VEL, FR) observed 1900 UTC 21 February 2019
Temperature: 8.0°C (46°F)
Dewpoint: 2.0°C (36°F) [RH = 66%]
Pressure (altimeter): 30.41 inches Hg (1030.0 mb)
Winds: from the NW (310 degrees) at 3 MPH (3 knots; 1.5 m/s)
Visibility: 6 or more miles (10+ km)
Ceiling: ceiling and visibility are OK
Clouds: unknown
Weather: no significant weather observed at this time

METAR text: LFPV 211830Z AUTO 27002KT CAVOK 09/02 Q1030 NOSIG
Conditions at: LFPV (VILLACOUBLAY/VEL, FR) observed 1830 UTC 21 February 2019
Temperature: 9.0°C (48°F)
Dewpoint: 2.0°C (36°F) [RH = 61%]
Pressure (altimeter): 30.41 inches Hg (1030.0 mb)
Winds: from the W (270 degrees) at 2 MPH (2 knots; 1.0 m/s)
Visibility: 6 or more miles (10+ km)
Ceiling: ceiling and visibility are OK
Clouds: unknown
Weather: no significant weather observed at this time

METAR text: LFPV 211800Z AUTO 24003KT CAVOK 12/02 Q1029 NOSIG
Conditions at: LFPV (VILLACOUBLAY/VEL, FR) observed 1800 UTC 21 February 2019
Temperature: 12.0°C (54°F)
Dewpoint: 2.0°C (36°F) [RH = 50%]
Pressure (altimeter): 30.38 inches Hg (1029.0 mb)
Winds: from the WSW (240 degrees) at 3 MPH (3 knots; 1.5 m/s)
Visibility: 6 or more miles (10+ km)
Ceiling: ceiling and visibility are OK
Clouds: unknown
Weather: no significant weather observed at this time

METAR text: LFPV 211730Z AUTO 22004KT CAVOK 13/02 Q1029 NOSIG
Conditions at: LFPV (VILLACOUBLAY/VEL, FR) observed 1730 UTC 21 February 2019
Temperature: 13.0°C (55°F)
Dewpoint: 2.0°C (36°F) [RH = 47%]
Pressure (altimeter): 30.38 inches Hg (1029.0 mb)
Winds: from the SW (220 degrees) at 5 MPH (4 knots; 2.1 m/s)
Visibility: 6 or more miles (10+ km)
Ceiling: ceiling and visibility are OK
Clouds: unknown
Weather: no significant weather observed at this time

METAR text: LFPV 211700Z AUTO 22004KT CAVOK 14/00 Q1029 NOSIG
Conditions at: LFPV (VILLACOUBLAY/VEL, FR) observed 1700 UTC 21 February 2019
Temperature: 14.0°C (57°F)
Dewpoint: 0.0°C (32°F) [RH = 38%]
Pressure (altimeter): 30.38 inches Hg (1029.0 mb)
Winds: from the SW (220 degrees) at 5 MPH (4 knots; 2.1 m/s)
Visibility: 6 or more miles (10+ km)
Ceiling: ceiling and visibility are OK
Clouds: unknown
Weather: no significant weather observed at this time

METAR text: LFPV 211630Z AUTO 21004KT CAVOK 15/01 Q1028 NOSIG
Conditions at: LFPV (VILLACOUBLAY/VEL, FR) observed 1630 UTC 21 February 2019
Temperature: 15.0°C (59°F)
Dewpoint: 1.0°C (34°F) [RH = 39%]
Pressure (altimeter): 30.35 inches Hg (1028.0 mb)
Winds: from the SSW (210 degrees) at 5 MPH (4 knots; 2.1 m/s)
Visibility: 6 or more miles (10+ km)
Ceiling: ceiling and visibility are OK
Clouds: unknown
Weather: no significant weather observed at this time

METAR text: LFPV 211600Z AUTO VRB02KT CAVOK 16/03 Q1029 NOSIG
Conditions at: LFPV (VILLACOUBLAY/VEL, FR) observed 1600 UTC 21 February 2019
Temperature: 16.0°C (61°F)
Dewpoint: 3.0°C (37°F) [RH = 42%]
Pressure (altimeter): 30.38 inches Hg (1029.0 mb)
Winds: variable direction winds at 2 MPH (2 knots; 1.0 m/s)
Visibility: 6 or more miles (10+ km)
Ceiling: ceiling and visibility are OK
Clouds: unknown
Weather: no significant weather observed at this time

METAR text: LFPV 211530Z AUTO VRB02KT CAVOK 16/05 Q1029 NOSIG
Conditions at: LFPV (VILLACOUBLAY/VEL, FR) observed 1530 UTC 21 February 2019
Temperature: 16.0°C (61°F)
Dewpoint: 5.0°C (41°F) [RH = 48%]
Pressure (altimeter): 30.38 inches Hg (1029.0 mb)
Winds: variable direction winds at 2 MPH (2 knots; 1.0 m/s)
Visibility: 6 or more miles (10+ km)
Ceiling: ceiling and visibility are OK
Clouds: unknown
Weather: no significant weather observed at this time

METAR text: LFPV 211500Z AUTO VRB02KT 9999 FEW037 15/06 Q1028 NOSIG
Conditions at: LFPV (VILLACOUBLAY/VEL, FR) observed 1500 UTC 21 February 2019
Temperature: 15.0°C (59°F)
Dewpoint: 6.0°C (43°F) [RH = 55%]
Pressure (altimeter): 30.35 inches Hg (1028.0 mb)
Winds: variable direction winds at 2 MPH (2 knots; 1.0 m/s)
Visibility: 6 or more miles (10+ km)
Ceiling: at least 12,000 feet AGL
Clouds: few clouds at 3700 feet AGL
Weather: no significant weather observed at this time

METAR text: LFPV 211430Z AUTO VRB02KT CAVOK 15/06 Q1028 NOSIG
Conditions at: LFPV (VILLACOUBLAY/VEL, FR) observed 1430 UTC 21 February 2019
Temperature: 15.0°C (59°F)
Dewpoint: 6.0°C (43°F) [RH = 55%]
Pressure (altimeter): 30.35 inches Hg (1028.0 mb)
Winds: variable direction winds at 2 MPH (2 knots; 1.0 m/s)
Visibility: 6 or more miles (10+ km)
Ceiling: ceiling and visibility are OK
Clouds: unknown
Weather: no significant weather observed at this time

METAR text: LFPV 211400Z AUTO VRB04KT 9999 FEW037 15/06 Q1028 NOSIG
Conditions at: LFPV (VILLACOUBLAY/VEL, FR) observed 1400 UTC 21 February 2019
Temperature: 15.0°C (59°F)
Dewpoint: 6.0°C (43°F) [RH = 55%]
Pressure (altimeter): 30.35 inches Hg (1028.0 mb)
Winds: variable direction winds at 5 MPH (4 knots; 2.1 m/s)
Visibility: 6 or more miles (10+ km)
Ceiling: at least 12,000 feet AGL
Clouds: few clouds at 3700 feet AGL
Weather: no significant weather observed at this time

METAR text: LFPV 211330Z AUTO VRB03KT CAVOK 15/06 Q1028 NOSIG
Conditions at: LFPV (VILLACOUBLAY/VEL, FR) observed 1330 UTC 21 February 2019
Temperature: 15.0°C (59°F)
Dewpoint: 6.0°C (43°F) [RH = 55%]
Pressure (altimeter): 30.35 inches Hg (1028.0 mb)
Winds: variable direction winds at 3 MPH (3 knots; 1.5 m/s)
Visibility: 6 or more miles (10+ km)
Ceiling: ceiling and visibility are OK
Clouds: unknown
Weather: no significant weather observed at this time

METAR text: LFPV 211300Z AUTO 24003KT 190V290 CAVOK 15/07 Q1028 NOSIG
Conditions at: LFPV (VILLACOUBLAY/VEL, FR) observed 1300 UTC 21 February 2019
Temperature: 15.0°C (59°F)
Dewpoint: 7.0°C (45°F) [RH = 59%]
Pressure (altimeter): 30.35 inches Hg (1028.0 mb)
Winds: from the WSW (240 degrees) at 3 MPH (3 knots; 1.5 m/s)
Visibility: 6 or more miles (10+ km)
Ceiling: ceiling and visibility are OK
Clouds: unknown
Weather: no significant weather observed at this time

METAR text: LFPV 211230Z AUTO 25004KT CAVOK 14/07 Q1028 NOSIG
Conditions at: LFPV (VILLACOUBLAY/VEL, FR) observed 1230 UTC 21 February 2019
Temperature: 14.0°C (57°F)
Dewpoint: 7.0°C (45°F) [RH = 63%]
Pressure (altimeter): 30.35 inches Hg (1028.0 mb)
Winds: from the WSW (250 degrees) at 5 MPH (4 knots; 2.1 m/s)
Visibility: 6 or more miles (10+ km)
Ceiling: ceiling and visibility are OK
Clouds: unknown
Weather: no significant weather observed at this time

METAR text: LFPV 211200Z AUTO VRB03KT CAVOK 13/07 Q1028 NOSIG
Conditions at: LFPV (VILLACOUBLAY/VEL, FR) observed 1200 UTC 21 February 2019
Temperature: 13.0°C (55°F)
Dewpoint: 7.0°C (45°F) [RH = 67%]
Pressure (altimeter): 30.35 inches Hg (1028.0 mb)
Winds: variable direction winds at 3 MPH (3 knots; 1.5 m/s)
Visibility: 6 or more miles (10+ km)
Ceiling: ceiling and visibility are OK
Clouds: unknown
Weather: no significant weather observed at this time

METAR text: LFPV 211130Z AUTO 00000KT CAVOK 13/07 Q1028 NOSIG
Conditions at: LFPV (VILLACOUBLAY/VEL, FR) observed 1130 UTC 21 February 2019
Temperature: 13.0°C (55°F)
Dewpoint: 7.0°C (45°F) [RH = 67%]
Pressure (altimeter): 30.35 inches Hg (1028.0 mb)
Winds: calm
Visibility: 6 or more miles (10+ km)
Ceiling: ceiling and visibility are OK
Clouds: unknown
Weather: no significant weather observed at this time

METAR text: LFPV 211100Z AUTO 20003KT 170V230 CAVOK 12/07 Q1028 NOSIG
Conditions at: LFPV (VILLACOUBLAY/VEL, FR) observed 1100 UTC 21 February 2019
Temperature: 12.0°C (54°F)
Dewpoint: 7.0°C (45°F) [RH = 71%]
Pressure (altimeter): 30.35 inches Hg (1028.0 mb)
Winds: from the SSW (200 degrees) at 3 MPH (3 knots; 1.5 m/s)
Visibility: 6 or more miles (10+ km)
Ceiling: ceiling and visibility are OK
Clouds: unknown
Weather: no significant weather observed at this time

METAR text: LFPV 211030Z AUTO 19003KT 140V230 CAVOK 12/07 Q1028 NOSIG
Conditions at: LFPV (VILLACOUBLAY/VEL, FR) observed 1030 UTC 21 February 2019
Temperature: 12.0°C (54°F)
Dewpoint: 7.0°C (45°F) [RH = 71%]
Pressure (altimeter): 30.35 inches Hg (1028.0 mb)
Winds: from the S (190 degrees) at 3 MPH (3 knots; 1.5 m/s)
Visibility: 6 or more miles (10+ km)
Ceiling: ceiling and visibility are OK
Clouds: unknown
Weather: no significant weather observed at this time

METAR text: LFPV 211000Z AUTO 23003KT 9000 NSC 10/07 Q1028 NOSIG
Conditions at: LFPV (VILLACOUBLAY/VEL, FR) observed 1000 UTC 21 February 2019
Temperature: 10.0°C (50°F)
Dewpoint: 7.0°C (45°F) [RH = 82%]
Pressure (altimeter): 30.35 inches Hg (1028.0 mb)
Winds: from the SW (230 degrees) at 3 MPH (3 knots; 1.5 m/s)
Visibility: 6 miles ( 9 km)
Ceiling: at least 12,000 feet AGL
Clouds: sky clear below 12,000 feet AGL
Weather: no significant weather observed at this time

METAR text: LFPV 210930Z AUTO VRB03KT 8000 NSC 09/07 Q1028 NOSIG
Conditions at: LFPV (VILLACOUBLAY/VEL, FR) observed 0930 UTC 21 February 2019
Temperature: 9.0°C (48°F)
Dewpoint: 7.0°C (45°F) [RH = 87%]
Pressure (altimeter): 30.35 inches Hg (1028.0 mb)
Winds: variable direction winds at 3 MPH (3 knots; 1.5 m/s)
Visibility: 5 miles ( 8 km)
Ceiling: at least 12,000 feet AGL
Clouds: sky clear below 12,000 feet AGL
Weather: no significant weather observed at this time

METAR text: LFPV 210900Z AUTO 00000KT 8000 NSC 09/06 Q1028 NOSIG
Conditions at: LFPV (VILLACOUBLAY/VEL, FR) observed 0900 UTC 21 February 2019
Temperature: 9.0°C (48°F)
Dewpoint: 6.0°C (43°F) [RH = 81%]
Pressure (altimeter): 30.35 inches Hg (1028.0 mb)
Winds: calm
Visibility: 5 miles ( 8 km)
Ceiling: at least 12,000 feet AGL
Clouds: sky clear below 12,000 feet AGL
Weather: no significant weather observed at this time

METAR text: LFPV 210830Z AUTO 20005KT 7000 NSC 07/06 Q1027 NOSIG
Conditions at: LFPV (VILLACOUBLAY/VEL, FR) observed 0830 UTC 21 February 2019
Temperature: 7.0°C (45°F)
Dewpoint: 6.0°C (43°F) [RH = 93%]
Pressure (altimeter): 30.32 inches Hg (1027.0 mb)
Winds: from the SSW (200 degrees) at 6 MPH (5 knots; 2.6 m/s)
Visibility: 4 miles ( 7 km)
Ceiling: at least 12,000 feet AGL
Clouds: sky clear below 12,000 feet AGL
Weather: no significant weather observed at this time

METAR text: LFPV 210800Z AUTO VRB02KT 3800 BR NSC 06/06 Q1027
Conditions at: LFPV (VILLACOUBLAY/VEL, FR) observed 0800 UTC 21 February 2019
Temperature: 6.0°C (43°F)
Dewpoint: 6.0°C (43°F) [RH = 100%]
Pressure (altimeter): 30.32 inches Hg (1027.0 mb)
Winds: variable direction winds at 2 MPH (2 knots; 1.0 m/s)
Visibility: 2.36 miles (3.80 km)
Ceiling: at least 12,000 feet AGL
Clouds: sky clear below 12,000 feet AGL
Weather: BR  (mist)

METAR text: LFPV 210730Z AUTO 00000KT 2500 BR NSC 04/04 Q1027 BECMG 4400 BR
Conditions at: LFPV (VILLACOUBLAY/VEL, FR) observed 0730 UTC 21 February 2019
Temperature: 4.0°C (39°F)
Dewpoint: 4.0°C (39°F) [RH = 100%]
Pressure (altimeter): 30.32 inches Hg (1027.0 mb)
Winds: calm
Visibility: 1.55 miles (2.49 km)
Ceiling: at least 12,000 feet AGL
Clouds: sky clear below 12,000 feet AGL
Weather: BR  (mist)

METAR text: LFPV 210700Z AUTO 20002KT 1500 0450 R27/0900D R09/1300N BCFG NSC 04/04 Q1027 BECMG 4400 BR
Conditions at: LFPV (VILLACOUBLAY/VEL, FR) observed 0700 UTC 21 February 2019
Temperature: 4.0°C (39°F)
Dewpoint: 4.0°C (39°F) [RH = 100%]
Pressure (altimeter): 30.32 inches Hg (1027.0 mb)
Winds: from the SSW (200 degrees) at 2 MPH (2 knots; 1.0 m/s)
Visibility: 0.93 miles (1.50 km)
Ceiling: at least 12,000 feet AGL
Clouds: sky clear below 12,000 feet AGL
Weather: BCFG  (patches of fog)

METAR text: LFPV 210630Z AUTO 00000KT 5000 BR NSC 04/04 Q1026 NOSIG
Conditions at: LFPV (VILLACOUBLAY/VEL, FR) observed 0630 UTC 21 February 2019
Temperature: 4.0°C (39°F)
Dewpoint: 4.0°C (39°F) [RH = 100%]
Pressure (altimeter): 30.30 inches Hg (1026.0 mb)
Winds: calm
Visibility: 3 miles ( 5 km)
Ceiling: at least 12,000 feet AGL
Clouds: sky clear below 12,000 feet AGL
Weather: BR  (mist)

METAR text: LFPV 210600Z AUTO 00000KT 4200 0700 R27/P2000 R09/P2000 BCFG NSC 04/03 Q1026 TEMPO 0350 FG
Conditions at: LFPV (VILLACOUBLAY/VEL, FR) observed 0600 UTC 21 February 2019
Temperature: 4.0°C (39°F)
Dewpoint: 3.0°C (37°F) [RH = 93%]
Pressure (altimeter): 30.30 inches Hg (1026.0 mb)
Winds: calm
Visibility: 2.61 miles (4.20 km)
Ceiling: at least 12,000 feet AGL
Clouds: sky clear below 12,000 feet AGL
Weather: BCFG  (patches of fog)

METAR text: LFPV 210530Z AUTO 19002KT 2200 0600 R27/P2000 R09/0900D BCFG NSC 03/03 Q1026 BECMG 4400 BR
Conditions at: LFPV (VILLACOUBLAY/VEL, FR) observed 0530 UTC 21 February 2019
Temperature: 3.0°C (37°F)
Dewpoint: 3.0°C (37°F) [RH = 100%]
Pressure (altimeter): 30.30 inches Hg (1026.0 mb)
Winds: from the S (190 degrees) at 2 MPH (2 knots; 1.0 m/s)
Visibility: 1.37 miles (2.20 km)
Ceiling: at least 12,000 feet AGL
Clouds: sky clear below 12,000 feet AGL
Weather: BCFG  (patches of fog)

METAR text: LFPV 210500Z AUTO 18002KT 3900 0300 R27/P2000 R09/P2000 BCFG NSC 04/03 Q1026 TEMPO 0350 FG
Conditions at: LFPV (VILLACOUBLAY/VEL, FR) observed 0500 UTC 21 February 2019
Temperature: 4.0°C (39°F)
Dewpoint: 3.0°C (37°F) [RH = 93%]
Pressure (altimeter): 30.30 inches Hg (1026.0 mb)
Winds: from the S (180 degrees) at 2 MPH (2 knots; 1.0 m/s)
Visibility: 2.42 miles (3.89 km)
Ceiling: at least 12,000 feet AGL
Clouds: sky clear below 12,000 feet AGL
Weather: BCFG  (patches of fog)

METAR text: LFPV 210430Z AUTO 20002KT 5000 BR NSC 04/03 Q1026 TEMPO 0350 FG
Conditions at: LFPV (VILLACOUBLAY/VEL, FR) observed 0430 UTC 21 February 2019
Temperature: 4.0°C (39°F)
Dewpoint: 3.0°C (37°F) [RH = 93%]
Pressure (altimeter): 30.30 inches Hg (1026.0 mb)
Winds: from the SSW (200 degrees) at 2 MPH (2 knots; 1.0 m/s)
Visibility: 3 miles ( 5 km)
Ceiling: at least 12,000 feet AGL
Clouds: sky clear below 12,000 feet AGL
Weather: BR  (mist)

METAR text: LFPV 210400Z AUTO 00000KT 3900 R27/1300U BR NSC 04/03 Q1026 TEMPO 0350 FG
Conditions at: LFPV (VILLACOUBLAY/VEL, FR) observed 0400 UTC 21 February 2019
Temperature: 4.0°C (39°F)
Dewpoint: 3.0°C (37°F) [RH = 93%]
Pressure (altimeter): 30.30 inches Hg (1026.0 mb)
Winds: calm
Visibility: 2.42 miles (3.89 km)
Ceiling: at least 12,000 feet AGL
Clouds: sky clear below 12,000 feet AGL
Weather: BR  (mist)

METAR text: LFPV 210330Z AUTO 00000KT 4200 BR NSC 03/03 Q1026 TEMPO 0350 FG
Conditions at: LFPV (VILLACOUBLAY/VEL, FR) observed 0330 UTC 21 February 2019
Temperature: 3.0°C (37°F)
Dewpoint: 3.0°C (37°F) [RH = 100%]
Pressure (altimeter): 30.30 inches Hg (1026.0 mb)
Winds: calm
Visibility: 2.61 miles (4.20 km)
Ceiling: at least 12,000 feet AGL
Clouds: sky clear below 12,000 feet AGL
Weather: BR  (mist)

METAR text: LFPV 210300Z AUTO 00000KT 4700 BR NSC 04/03 Q1026 TEMPO 0350 FG
Conditions at: LFPV (VILLACOUBLAY/VEL, FR) observed 0300 UTC 21 February 2019
Temperature: 4.0°C (39°F)
Dewpoint: 3.0°C (37°F) [RH = 93%]
Pressure (altimeter): 30.30 inches Hg (1026.0 mb)
Winds: calm
Visibility: 2.92 miles (4.70 km)
Ceiling: at least 12,000 feet AGL
Clouds: sky clear below 12,000 feet AGL
Weather: BR  (mist)

METAR text: LFPV 210230Z AUTO 00000KT 4500 0700 R27/P2000 R09/P2000 BCFG NSC 03/03 Q1026 TEMPO 0350 FG
Conditions at: LFPV (VILLACOUBLAY/VEL, FR) observed 0230 UTC 21 February 2019
Temperature: 3.0°C (37°F)
Dewpoint: 3.0°C (37°F) [RH = 100%]
Pressure (altimeter): 30.30 inches Hg (1026.0 mb)
Winds: calm
Visibility: 2.80 miles (4.51 km)
Ceiling: at least 12,000 feet AGL
Clouds: sky clear below 12,000 feet AGL
Weather: BCFG  (patches of fog)

METAR text: LFPV 210200Z AUTO 00000KT 4200 BR NSC 04/04 Q1026 TEMPO 0350 FG
Conditions at: LFPV (VILLACOUBLAY/VEL, FR) observed 0200 UTC 21 February 2019
Temperature: 4.0°C (39°F)
Dewpoint: 4.0°C (39°F) [RH = 100%]
Pressure (altimeter): 30.30 inches Hg (1026.0 mb)
Winds: calm
Visibility: 2.61 miles (4.20 km)
Ceiling: at least 12,000 feet AGL
Clouds: sky clear below 12,000 feet AGL
Weather: BR  (mist)

METAR text: LFPV 210130Z AUTO 19002KT 3600 0400 R27/P2000 R09/P2000 BCFG NSC 04/03 Q1026 TEMPO 0350 FG
Conditions at: LFPV (VILLACOUBLAY/VEL, FR) observed 0130 UTC 21 February 2019
Temperature: 4.0°C (39°F)
Dewpoint: 3.0°C (37°F) [RH = 93%]
Pressure (altimeter): 30.30 inches Hg (1026.0 mb)
Winds: from the S (190 degrees) at 2 MPH (2 knots; 1.0 m/s)
Visibility: 2.24 miles (3.60 km)
Ceiling: at least 12,000 feet AGL
Clouds: sky clear below 12,000 feet AGL
Weather: BCFG  (patches of fog)

METAR text: LFPV 210100Z AUTO 00000KT 5000 BR NSC 05/04 Q1026 TEMPO 0350 FG
Conditions at: LFPV (VILLACOUBLAY/VEL, FR) observed 0100 UTC 21 February 2019
Temperature: 5.0°C (41°F)
Dewpoint: 4.0°C (39°F) [RH = 93%]
Pressure (altimeter): 30.30 inches Hg (1026.0 mb)
Winds: calm
Visibility: 3 miles ( 5 km)
Ceiling: at least 12,000 feet AGL
Clouds: sky clear below 12,000 feet AGL
Weather: BR  (mist)

METAR text: LFPV 210030Z AUTO 00000KT 6000 NSC 05/04 Q1025 TEMPO 0350 FG
Conditions at: LFPV (VILLACOUBLAY/VEL, FR) observed 0030 UTC 21 February 2019
Temperature: 5.0°C (41°F)
Dewpoint: 4.0°C (39°F) [RH = 93%]
Pressure (altimeter): 30.27 inches Hg (1025.0 mb)
Winds: calm
Visibility: 4 miles ( 6 km)
Ceiling: at least 12,000 feet AGL
Clouds: sky clear below 12,000 feet AGL
Weather: no significant weather observed at this time

METAR text: LFPV 210000Z AUTO 00000KT 7000 NSC 06/04 Q1025 TEMPO 0350 FG
Conditions at: LFPV (VILLACOUBLAY/VEL, FR) observed 0000 UTC 21 February 2019
Temperature: 6.0°C (43°F)
Dewpoint: 4.0°C (39°F) [RH = 87%]
Pressure (altimeter): 30.27 inches Hg (1025.0 mb)
Winds: calm
Visibility: 4 miles ( 7 km)
Ceiling: at least 12,000 feet AGL
Clouds: sky clear below 12,000 feet AGL
Weather: no significant weather observed at this time

METAR text: LFPV 202330Z AUTO 16004KT 8000 NSC 08/05 Q1025 TEMPO 0350 FG
Conditions at: LFPV (VILLACOUBLAY/VEL, FR) observed 2330 UTC 20 February 2019
Temperature: 8.0°C (46°F)
Dewpoint: 5.0°C (41°F) [RH = 81%]
Pressure (altimeter): 30.27 inches Hg (1025.0 mb)
Winds: from the SSE (160 degrees) at 5 MPH (4 knots; 2.1 m/s)
Visibility: 5 miles ( 8 km)
Ceiling: at least 12,000 feet AGL
Clouds: sky clear below 12,000 feet AGL
Weather: no significant weather observed at this time

METAR text: LFPV 202300Z AUTO 15003KT 9000 NSC 07/05 Q1025 BECMG 1500 BR
Conditions at: LFPV (VILLACOUBLAY/VEL, FR) observed 2300 UTC 20 February 2019
Temperature: 7.0°C (45°F)
Dewpoint: 5.0°C (41°F) [RH = 87%]
Pressure (altimeter): 30.27 inches Hg (1025.0 mb)
Winds: from the SSE (150 degrees) at 3 MPH (3 knots; 1.5 m/s)
Visibility: 6 miles ( 9 km)
Ceiling: at least 12,000 feet AGL
Clouds: sky clear below 12,000 feet AGL
Weather: no significant weather observed at this time

METAR text: LFPV 202230Z AUTO 00000KT 8000 NSC 06/04 Q1025 BECMG 1500 BR
Conditions at: LFPV (VILLACOUBLAY/VEL, FR) observed 2230 UTC 20 February 2019
Temperature: 6.0°C (43°F)
Dewpoint: 4.0°C (39°F) [RH = 87%]
Pressure (altimeter): 30.27 inches Hg (1025.0 mb)
Winds: calm
Visibility: 5 miles ( 8 km)
Ceiling: at least 12,000 feet AGL
Clouds: sky clear below 12,000 feet AGL
Weather: no significant weather observed at this time

METAR text: LFPV 202200Z AUTO 14002KT CAVOK 07/05 Q1025 BECMG 1500 BR
Conditions at: LFPV (VILLACOUBLAY/VEL, FR) observed 2200 UTC 20 February 2019
Temperature: 7.0°C (45°F)
Dewpoint: 5.0°C (41°F) [RH = 87%]
Pressure (altimeter): 30.27 inches Hg (1025.0 mb)
Winds: from the SE (140 degrees) at 2 MPH (2 knots; 1.0 m/s)
Visibility: 6 or more miles (10+ km)
Ceiling: ceiling and visibility are OK
Clouds: unknown
Weather: no significant weather observed at this time

METAR text: LFPV 202130Z AUTO 15003KT CAVOK 07/05 Q1025 BECMG 1500 BR
Conditions at: LFPV (VILLACOUBLAY/VEL, FR) observed 2130 UTC 20 February 2019
Temperature: 7.0°C (45°F)
Dewpoint: 5.0°C (41°F) [RH = 87%]
Pressure (altimeter): 30.27 inches Hg (1025.0 mb)
Winds: from the SSE (150 degrees) at 3 MPH (3 knots; 1.5 m/s)
Visibility: 6 or more miles (10+ km)
Ceiling: ceiling and visibility are OK
Clouds: unknown
Weather: no significant weather observed at this time

METAR text: LFPV 202100Z AUTO 15003KT CAVOK 06/05 Q1025 BECMG 1500 BR
Conditions at: LFPV (VILLACOUBLAY/VEL, FR) observed 2100 UTC 20 February 2019
Temperature: 6.0°C (43°F)
Dewpoint: 5.0°C (41°F) [RH = 93%]
Pressure (altimeter): 30.27 inches Hg (1025.0 mb)
Winds: from the SSE (150 degrees) at 3 MPH (3 knots; 1.5 m/s)
Visibility: 6 or more miles (10+ km)
Ceiling: ceiling and visibility are OK
Clouds: unknown
Weather: no significant weather observed at this time

METAR text: LFPV 202030Z AUTO 00000KT CAVOK 06/04 Q1025 BECMG 1500 BR
Conditions at: LFPV (VILLACOUBLAY/VEL, FR) observed 2030 UTC 20 February 2019
Temperature: 6.0°C (43°F)
Dewpoint: 4.0°C (39°F) [RH = 87%]
Pressure (altimeter): 30.27 inches Hg (1025.0 mb)
Winds: calm
Visibility: 6 or more miles (10+ km)
Ceiling: ceiling and visibility are OK
Clouds: unknown
Weather: no significant weather observed at this time

METAR text: LFPV 202000Z AUTO 00000KT CAVOK 06/05 Q1024 BECMG 1500 BR
Conditions at: LFPV (VILLACOUBLAY/VEL, FR) observed 2000 UTC 20 February 2019
Temperature: 6.0°C (43°F)
Dewpoint: 5.0°C (41°F) [RH = 93%]
Pressure (altimeter): 30.24 inches Hg (1024.0 mb)
Winds: calm
Visibility: 6 or more miles (10+ km)
Ceiling: ceiling and visibility are OK
Clouds: unknown
Weather: no significant weather observed at this time

METAR text: LFPV 201930Z AUTO 00000KT CAVOK 07/05 Q1024 BECMG 1500 BR
Conditions at: LFPV (VILLACOUBLAY/VEL, FR) observed 1930 UTC 20 February 2019
Temperature: 7.0°C (45°F)
Dewpoint: 5.0°C (41°F) [RH = 87%]
Pressure (altimeter): 30.24 inches Hg (1024.0 mb)
Winds: calm
Visibility: 6 or more miles (10+ km)
Ceiling: ceiling and visibility are OK
Clouds: unknown
Weather: no significant weather observed at this time

METAR text: LFPV 201900Z AUTO 00000KT CAVOK 07/04 Q1024 NOSIG
Conditions at: LFPV (VILLACOUBLAY/VEL, FR) observed 1900 UTC 20 February 2019
Temperature: 7.0°C (45°F)
Dewpoint: 4.0°C (39°F) [RH = 81%]
Pressure (altimeter): 30.24 inches Hg (1024.0 mb)
Winds: calm
Visibility: 6 or more miles (10+ km)
Ceiling: ceiling and visibility are OK
Clouds: unknown
Weather: no significant weather observed at this time

METAR text: LFPV 201830Z AUTO 16003KT CAVOK 09/05 Q1024 NOSIG
Conditions at: LFPV (VILLACOUBLAY/VEL, FR) observed 1830 UTC 20 February 2019
Temperature: 9.0°C (48°F)
Dewpoint: 5.0°C (41°F) [RH = 76%]
Pressure (altimeter): 30.24 inches Hg (1024.0 mb)
Winds: from the SSE (160 degrees) at 3 MPH (3 knots; 1.5 m/s)
Visibility: 6 or more miles (10+ km)
Ceiling: ceiling and visibility are OK
Clouds: unknown
Weather: no significant weather observed at this time

METAR text: LFPV 201800Z AUTO 16002KT CAVOK 10/05 Q1024 NOSIG
Conditions at: LFPV (VILLACOUBLAY/VEL, FR) observed 1800 UTC 20 February 2019
Temperature: 10.0°C (50°F)
Dewpoint: 5.0°C (41°F) [RH = 71%]
Pressure (altimeter): 30.24 inches Hg (1024.0 mb)
Winds: from the SSE (160 degrees) at 2 MPH (2 knots; 1.0 m/s)
Visibility: 6 or more miles (10+ km)
Ceiling: ceiling and visibility are OK
Clouds: unknown
Weather: no significant weather observed at this time

METAR text: LFPV 201730Z AUTO 21002KT CAVOK 11/05 Q1024 NOSIG
Conditions at: LFPV (VILLACOUBLAY/VEL, FR) observed 1730 UTC 20 February 2019
Temperature: 11.0°C (52°F)
Dewpoint: 5.0°C (41°F) [RH = 66%]
Pressure (altimeter): 30.24 inches Hg (1024.0 mb)
Winds: from the SSW (210 degrees) at 2 MPH (2 knots; 1.0 m/s)
Visibility: 6 or more miles (10+ km)
Ceiling: ceiling and visibility are OK
Clouds: unknown
Weather: no significant weather observed at this time

METAR text: LFPV 201700Z AUTO 21004KT 170V240 CAVOK 12/05 Q1024 NOSIG
Conditions at: LFPV (VILLACOUBLAY/VEL, FR) observed 1700 UTC 20 February 2019
Temperature: 12.0°C (54°F)
Dewpoint: 5.0°C (41°F) [RH = 62%]
Pressure (altimeter): 30.24 inches Hg (1024.0 mb)
Winds: from the SSW (210 degrees) at 5 MPH (4 knots; 2.1 m/s)
Visibility: 6 or more miles (10+ km)
Ceiling: ceiling and visibility are OK
Clouds: unknown
Weather: no significant weather observed at this time

METAR text: LFPV 201630Z AUTO 20004KT 140V230 CAVOK 12/05 Q1023 NOSIG
Conditions at: LFPV (VILLACOUBLAY/VEL, FR) observed 1630 UTC 20 February 2019
Temperature: 12.0°C (54°F)
Dewpoint: 5.0°C (41°F) [RH = 62%]
Pressure (altimeter): 30.21 inches Hg (1023.0 mb)
Winds: from the SSW (200 degrees) at 5 MPH (4 knots; 2.1 m/s)
Visibility: 6 or more miles (10+ km)
Ceiling: ceiling and visibility are OK
Clouds: unknown
Weather: no significant weather observed at this time

METAR text: LFPV 201600Z AUTO 19003KT 160V230 CAVOK 12/05 Q1023 NOSIG
Conditions at: LFPV (VILLACOUBLAY/VEL, FR) observed 1600 UTC 20 February 2019
Temperature: 12.0°C (54°F)
Dewpoint: 5.0°C (41°F) [RH = 62%]
Pressure (altimeter): 30.21 inches Hg (1023.0 mb)
Winds: from the S (190 degrees) at 3 MPH (3 knots; 1.5 m/s)
Visibility: 6 or more miles (10+ km)
Ceiling: ceiling and visibility are OK
Clouds: unknown
Weather: no significant weather observed at this time

METAR text: LFPV 201530Z AUTO 19005KT 150V230 9999 SCT031 12/05 Q1024 NOSIG
Conditions at: LFPV (VILLACOUBLAY/VEL, FR) observed 1530 UTC 20 February 2019
Temperature: 12.0°C (54°F)
Dewpoint: 5.0°C (41°F) [RH = 62%]
Pressure (altimeter): 30.24 inches Hg (1024.0 mb)
Winds: from the S (190 degrees) at 6 MPH (5 knots; 2.6 m/s)
Visibility: 6 or more miles (10+ km)
Ceiling: at least 12,000 feet AGL
Clouds: scattered clouds at 3100 feet AGL
Weather: no significant weather observed at this time

METAR text: LFPV 201500Z AUTO 19005KT 130V240 9999 SCT030 13/05 Q1024 NOSIG
Conditions at: LFPV (VILLACOUBLAY/VEL, FR) observed 1500 UTC 20 February 2019
Temperature: 13.0°C (55°F)
Dewpoint: 5.0°C (41°F) [RH = 58%]
Pressure (altimeter): 30.24 inches Hg (1024.0 mb)
Winds: from the S (190 degrees) at 6 MPH (5 knots; 2.6 m/s)
Visibility: 6 or more miles (10+ km)
Ceiling: at least 12,000 feet AGL
Clouds: scattered clouds at 3000 feet AGL
Weather: no significant weather observed at this time

METAR text: LFPV 201430Z AUTO VRB02KT 9999 FEW029 13/06 Q1024 NOSIG
Conditions at: LFPV (VILLACOUBLAY/VEL, FR) observed 1430 UTC 20 February 2019
Temperature: 13.0°C (55°F)
Dewpoint: 6.0°C (43°F) [RH = 62%]
Pressure (altimeter): 30.24 inches Hg (1024.0 mb)
Winds: variable direction winds at 2 MPH (2 knots; 1.0 m/s)
Visibility: 6 or more miles (10+ km)
Ceiling: at least 12,000 feet AGL
Clouds: few clouds at 2900 feet AGL
Weather: no significant weather observed at this time

METAR text: LFPV 201400Z AUTO 21003KT 180V250 9999 FEW031 12/05 Q1024
Conditions at: LFPV (VILLACOUBLAY/VEL, FR) observed 1400 UTC 20 February 2019
Temperature: 12.0°C (54°F)
Dewpoint: 5.0°C (41°F) [RH = 62%]
Pressure (altimeter): 30.24 inches Hg (1024.0 mb)
Winds: from the SSW (210 degrees) at 3 MPH (3 knots; 1.5 m/s)
Visibility: 6 or more miles (10+ km)
Ceiling: at least 12,000 feet AGL
Clouds: few clouds at 3100 feet AGL
Weather: no significant weather observed at this time

Forecast for: LFPV (VILLACOUBLAY/VEL, FR)
Text: TAF LFPV 212000Z 2121/2221 VRB02KT CAVOK
Forecast period: 2100 UTC 21 February 2019 to 2100 UTC 22 February 2019
Forecast type: FROM: standard forecast or significant change
Winds: variable direction winds at 2 MPH (2 knots; 1.0 m/s)
Visibility: 6 or more miles 10+ km)
Ceiling: unknown
Clouds: missing
Weather: NSW  (no significant weather)
Text: TEMPO 2123/2208 3000 BR
Forecast period: 2300 UTC 21 February 2019 to 0800 UTC 22 February 2019
Forecast type: TEMPORARY: The following changes expected for less than half the time period
Visibility: 1.86 miles (2.99 km)
Ceiling: unknown
Clouds: missing
Weather: BR  (mist)
Text: PROB40
Forecast period: 0300 to 0700 UTC 22 February 2019
Forecast type: TEMPORARY: The following changes expected for less than half the time period
Visibility: 0.50 miles (0.80 km)
Ceiling: unknown
Clouds: missing
Weather: BCFG  (patches of fog)
Text: TEMPO 2203/2207 0800 BCFG
Forecast period: 0500 to 0700 UTC 22 February 2019
Forecast type: TEMPORARY: The following changes expected for less than half the time period
Visibility: missing
Ceiling: unknown
Clouds: missing
Weather: no significant weather forecast for this period